< < Back
Terminal Aerodrome Forecast


Current Version              Previous Versions:   1  2  3  4  5  6  7  8  9  

Terminal Aerodrome Forecast

779
FTUS42 KGSP 271654 AAA
TAFAVL
TAF AMD
KAVL 271654Z 2717/2812 18007KT P6SM VCTS BKN050CB
      TEMPO 2717/2720 2SM -TSRA OVC035CB
     FM280400 VRB02KT P6SM SCT050
     FM280700 00000KT 3SM BR SCT010
     FM280900 VRB02KT 1SM BR BKN005=



Latest METAR

227
SAUS70 KWBC 280200 RRE
MTRAVL
METAR KAVL 280154Z 00000KT 10SM BKN038 21/16 A3016 RMK AO2 SLP190
T02060156


USA.gov is the U.S. government's official web portal to all federal, state and local government web resources and services.